sensor_id;sensor_type;location;lat;lon;timestamp;P1;durP1;ratioP1;P2;durP2;ratioP2
45296;SDS011;31040;51.622;10.420;2022-12-18T00:02:16;4.55;;;2.63;;
45296;SDS011;31040;51.622;10.420;2022-12-18T00:04:43;5.45;;;2.35;;
45296;SDS011;31040;51.622;10.420;2022-12-18T00:07:11;4.07;;;2.70;;
45296;SDS011;31040;51.622;10.420;2022-12-18T00:09:38;5.82;;;3.25;;
45296;SDS011;31040;51.622;10.420;2022-12-18T00:12:06;3.05;;;2.22;;
45296;SDS011;31040;51.622;10.420;2022-12-18T00:14:43;5.07;;;2.60;;
45296;SDS011;31040;51.622;10.420;2022-12-18T00:17:11;5.10;;;2.92;;
45296;SDS011;31040;51.622;10.420;2022-12-18T00:19:38;5.18;;;3.13;;
45296;SDS011;31040;51.622;10.420;2022-12-18T00:22:05;3.70;;;2.78;;
45296;SDS011;31040;51.622;10.420;2022-12-18T00:24:33;3.42;;;2.13;;
45296;SDS011;31040;51.622;10.420;2022-12-18T00:27:01;5.03;;;2.85;;
45296;SDS011;31040;51.622;10.420;2022-12-18T00:29:28;4.80;;;2.22;;
45296;SDS011;31040;51.622;10.420;2022-12-18T00:31:55;4.53;;;3.03;;
45296;SDS011;31040;51.622;10.420;2022-12-18T00:34:23;4.32;;;2.03;;
45296;SDS011;31040;51.622;10.420;2022-12-18T00:36:50;5.57;;;2.28;;
45296;SDS011;31040;51.622;10.420;2022-12-18T00:39:17;4.55;;;2.15;;
45296;SDS011;31040;51.622;10.420;2022-12-18T00:41:45;3.53;;;1.83;;
45296;SDS011;31040;51.622;10.420;2022-12-18T00:44:31;3.65;;;1.98;;
45296;SDS011;31040;51.622;10.420;2022-12-18T00:46:58;3.33;;;2.00;;
45296;SDS011;31040;51.622;10.420;2022-12-18T00:49:25;4.00;;;2.25;;
45296;SDS011;31040;51.622;10.420;2022-12-18T00:51:56;5.65;;;2.25;;
45296;SDS011;31040;51.622;10.420;2022-12-18T00:54:23;3.90;;;2.88;;
45296;SDS011;31040;51.622;10.420;2022-12-18T00:56:51;3.35;;;1.75;;
45296;SDS011;31040;51.622;10.420;2022-12-18T00:59:18;4.68;;;2.10;;
45296;SDS011;31040;51.622;10.420;2022-12-18T01:01:46;2.60;;;1.73;;
45296;SDS011;31040;51.622;10.420;2022-12-18T01:04:14;4.38;;;2.45;;
45296;SDS011;31040;51.622;10.420;2022-12-18T01:06:41;2.65;;;2.30;;
45296;SDS011;31040;51.622;10.420;2022-12-18T01:09:09;3.13;;;2.20;;
45296;SDS011;31040;51.622;10.420;2022-12-18T01:11:37;3.97;;;2.00;;
45296;SDS011;31040;51.622;10.420;2022-12-18T01:14:04;2.50;;;2.17;;
45296;SDS011;31040;51.622;10.420;2022-12-18T01:16:31;4.05;;;1.98;;
45296;SDS011;31040;51.622;10.420;2022-12-18T01:18:59;3.10;;;1.75;;
45296;SDS011;31040;51.622;10.420;2022-12-18T01:21:26;3.17;;;1.70;;
45296;SDS011;31040;51.622;10.420;2022-12-18T01:23:54;4.35;;;1.85;;
45296;SDS011;31040;51.622;10.420;2022-12-18T01:26:22;2.40;;;2.00;;
45296;SDS011;31040;51.622;10.420;2022-12-18T01:28:50;5.10;;;1.90;;
45296;SDS011;31040;51.622;10.420;2022-12-18T01:31:18;5.15;;;2.10;;
45296;SDS011;31040;51.622;10.420;2022-12-18T01:33:50;4.82;;;1.85;;
45296;SDS011;31040;51.622;10.420;2022-12-18T01:36:25;2.10;;;1.45;;
45296;SDS011;31040;51.622;10.420;2022-12-18T01:38:53;3.25;;;1.60;;
45296;SDS011;31040;51.622;10.420;2022-12-18T01:41:22;3.20;;;1.70;;
45296;SDS011;31040;51.622;10.420;2022-12-18T01:43:59;2.78;;;1.52;;
45296;SDS011;31040;51.622;10.420;2022-12-18T01:46:26;4.18;;;1.92;;
45296;SDS011;31040;51.622;10.420;2022-12-18T01:48:57;2.83;;;1.58;;
45296;SDS011;31040;51.622;10.420;2022-12-18T01:51:25;2.70;;;1.55;;
45296;SDS011;31040;51.622;10.420;2022-12-18T01:53:54;2.88;;;1.80;;
45296;SDS011;31040;51.622;10.420;2022-12-18T01:56:21;4.07;;;2.28;;
45296;SDS011;31040;51.622;10.420;2022-12-18T01:58:57;2.05;;;1.88;;
45296;SDS011;31040;51.622;10.420;2022-12-18T02:01:26;2.53;;;1.48;;
45296;SDS011;31040;51.622;10.420;2022-12-18T02:03:56;4.00;;;1.90;;
45296;SDS011;31040;51.622;10.420;2022-12-18T02:06:31;3.90;;;1.80;;
45296;SDS011;31040;51.622;10.420;2022-12-18T02:19:06;2.47;;;1.48;;
45296;SDS011;31040;51.622;10.420;2022-12-18T02:26:37;2.63;;;1.33;;
45296;SDS011;31040;51.622;10.420;2022-12-18T02:29:27;2.15;;;1.58;;
45296;SDS011;31040;51.622;10.420;2022-12-18T02:31:59;5.28;;;1.65;;
45296;SDS011;31040;51.622;10.420;2022-12-18T02:34:31;4.95;;;2.00;;
45296;SDS011;31040;51.622;10.420;2022-12-18T02:37:03;2.95;;;1.88;;
45296;SDS011;31040;51.622;10.420;2022-12-18T02:39:32;2.00;;;1.75;;
45296;SDS011;31040;51.622;10.420;2022-12-18T02:42:00;2.20;;;1.85;;
45296;SDS011;31040;51.622;10.420;2022-12-18T02:44:55;2.50;;;1.50;;
45296;SDS011;31040;51.622;10.420;2022-12-18T02:47:22;2.35;;;1.20;;
45296;SDS011;31040;51.622;10.420;2022-12-18T02:52:41;2.92;;;1.60;;
45296;SDS011;31040;51.622;10.420;2022-12-18T02:55:23;2.55;;;1.55;;
45296;SDS011;31040;51.622;10.420;2022-12-18T02:58:08;2.92;;;1.65;;
45296;SDS011;31040;51.622;10.420;2022-12-18T03:00:39;2.40;;;0.97;;
45296;SDS011;31040;51.622;10.420;2022-12-18T03:05:39;2.35;;;1.42;;
45296;SDS011;31040;51.622;10.420;2022-12-18T03:08:21;3.72;;;1.80;;
45296;SDS011;31040;51.622;10.420;2022-12-18T03:11:01;1.92;;;1.15;;
45296;SDS011;31040;51.622;10.420;2022-12-18T03:13:50;2.25;;;1.35;;
45296;SDS011;31040;51.622;10.420;2022-12-18T03:16:26;3.35;;;1.52;;
45296;SDS011;31040;51.622;10.420;2022-12-18T03:18:55;4.15;;;1.77;;
45296;SDS011;31040;51.622;10.420;2022-12-18T03:21:35;4.32;;;1.95;;
45296;SDS011;31040;51.622;10.420;2022-12-18T03:24:04;2.10;;;1.58;;
45296;SDS011;31040;51.622;10.420;2022-12-18T03:26:33;2.17;;;1.60;;
45296;SDS011;31040;51.622;10.420;2022-12-18T03:29:04;2.83;;;1.58;;
45296;SDS011;31040;51.622;10.420;2022-12-18T03:31:34;2.53;;;1.40;;
45296;SDS011;31040;51.622;10.420;2022-12-18T03:34:02;4.88;;;2.20;;
45296;SDS011;31040;51.622;10.420;2022-12-18T03:36:32;3.10;;;2.10;;
45296;SDS011;31040;51.622;10.420;2022-12-18T03:38:59;4.30;;;1.83;;
45296;SDS011;31040;51.622;10.420;2022-12-18T03:49:21;2.88;;;1.45;;
45296;SDS011;31040;51.622;10.420;2022-12-18T03:51:56;3.22;;;1.50;;
45296;SDS011;31040;51.622;10.420;2022-12-18T03:54:24;4.43;;;1.73;;
45296;SDS011;31040;51.622;10.420;2022-12-18T03:57:01;3.55;;;1.42;;
45296;SDS011;31040;51.622;10.420;2022-12-18T03:59:30;3.53;;;1.70;;
45296;SDS011;31040;51.622;10.420;2022-12-18T04:01:58;2.55;;;1.52;;
45296;SDS011;31040;51.622;10.420;2022-12-18T04:04:27;2.78;;;1.48;;
45296;SDS011;31040;51.622;10.420;2022-12-18T04:06:55;3.33;;;1.70;;
45296;SDS011;31040;51.622;10.420;2022-12-18T04:09:23;3.10;;;1.30;;
45296;SDS011;31040;51.622;10.420;2022-12-18T04:11:51;3.67;;;1.52;;
45296;SDS011;31040;51.622;10.420;2022-12-18T04:14:19;4.10;;;1.02;;
45296;SDS011;31040;51.622;10.420;2022-12-18T04:16:46;2.90;;;1.63;;
45296;SDS011;31040;51.622;10.420;2022-12-18T04:19:14;4.75;;;1.98;;
45296;SDS011;31040;51.622;10.420;2022-12-18T04:21:41;3.05;;;1.58;;
45296;SDS011;31040;51.622;10.420;2022-12-18T04:24:08;3.13;;;1.67;;
45296;SDS011;31040;51.622;10.420;2022-12-18T04:26:36;1.50;;;1.27;;
45296;SDS011;31040;51.622;10.420;2022-12-18T04:29:03;3.90;;;1.80;;
45296;SDS011;31040;51.622;10.420;2022-12-18T04:31:30;1.30;;;1.20;;
45296;SDS011;31040;51.622;10.420;2022-12-18T04:34:00;2.50;;;1.48;;
45296;SDS011;31040;51.622;10.420;2022-12-18T04:36:28;2.22;;;1.48;;
45296;SDS011;31040;51.622;10.420;2022-12-18T04:38:55;3.35;;;1.42;;
45296;SDS011;31040;51.622;10.420;2022-12-18T04:41:23;3.00;;;1.40;;
45296;SDS011;31040;51.622;10.420;2022-12-18T04:43:50;1.73;;;1.33;;
45296;SDS011;31040;51.622;10.420;2022-12-18T04:46:17;1.30;;;1.20;;
45296;SDS011;31040;51.622;10.420;2022-12-18T04:48:45;2.83;;;1.20;;
45296;SDS011;31040;51.622;10.420;2022-12-18T04:51:13;1.85;;;1.35;;
45296;SDS011;31040;51.622;10.420;2022-12-18T04:53:40;2.38;;;1.15;;
45296;SDS011;31040;51.622;10.420;2022-12-18T04:56:09;1.88;;;1.23;;
45296;SDS011;31040;51.622;10.420;2022-12-18T04:58:37;4.28;;;1.52;;
45296;SDS011;31040;51.622;10.420;2022-12-18T05:01:05;4.10;;;1.25;;
45296;SDS011;31040;51.622;10.420;2022-12-18T05:03:36;3.90;;;1.35;;
45296;SDS011;31040;51.622;10.420;2022-12-18T05:06:04;3.83;;;1.50;;
45296;SDS011;31040;51.622;10.420;2022-12-18T05:08:32;2.22;;;1.27;;
45296;SDS011;31040;51.622;10.420;2022-12-18T05:11:00;2.40;;;1.25;;
45296;SDS011;31040;51.622;10.420;2022-12-18T05:13:29;1.75;;;1.20;;
45296;SDS011;31040;51.622;10.420;2022-12-18T05:15:57;1.27;;;1.17;;
45296;SDS011;31040;51.622;10.420;2022-12-18T05:18:24;1.80;;;1.05;;
45296;SDS011;31040;51.622;10.420;2022-12-18T05:20:52;2.13;;;1.40;;
45296;SDS011;31040;51.622;10.420;2022-12-18T05:23:20;2.72;;;1.30;;
45296;SDS011;31040;51.622;10.420;2022-12-18T05:25:51;2.15;;;1.13;;
45296;SDS011;31040;51.622;10.420;2022-12-18T05:28:19;3.30;;;1.67;;
45296;SDS011;31040;51.622;10.420;2022-12-18T05:30:48;2.72;;;1.73;;
45296;SDS011;31040;51.622;10.420;2022-12-18T05:33:16;2.03;;;1.30;;
45296;SDS011;31040;51.622;10.420;2022-12-18T05:35:44;2.45;;;1.48;;
45296;SDS011;31040;51.622;10.420;2022-12-18T05:38:11;3.08;;;1.48;;
45296;SDS011;31040;51.622;10.420;2022-12-18T05:40:41;1.38;;;1.10;;
45296;SDS011;31040;51.622;10.420;2022-12-18T05:43:08;4.20;;;1.60;;
45296;SDS011;31040;51.622;10.420;2022-12-18T05:45:40;3.28;;;1.08;;
45296;SDS011;31040;51.622;10.420;2022-12-18T05:48:08;1.95;;;1.15;;
45296;SDS011;31040;51.622;10.420;2022-12-18T05:50:39;1.58;;;1.25;;
45296;SDS011;31040;51.622;10.420;2022-12-18T05:53:07;1.70;;;1.20;;
45296;SDS011;31040;51.622;10.420;2022-12-18T05:55:35;2.75;;;1.30;;
45296;SDS011;31040;51.622;10.420;2022-12-18T05:58:03;1.95;;;1.20;;
45296;SDS011;31040;51.622;10.420;2022-12-18T06:00:31;1.40;;;0.90;;
45296;SDS011;31040;51.622;10.420;2022-12-18T06:02:59;1.75;;;1.40;;
45296;SDS011;31040;51.622;10.420;2022-12-18T06:05:26;1.70;;;1.60;;
45296;SDS011;31040;51.622;10.420;2022-12-18T06:07:53;2.60;;;1.30;;
45296;SDS011;31040;51.622;10.420;2022-12-18T06:10:21;4.15;;;1.45;;
45296;SDS011;31040;51.622;10.420;2022-12-18T06:12:48;2.63;;;1.73;;
45296;SDS011;31040;51.622;10.420;2022-12-18T06:15:15;1.63;;;1.30;;
45296;SDS011;31040;51.622;10.420;2022-12-18T06:17:43;2.20;;;1.48;;
45296;SDS011;31040;51.622;10.420;2022-12-18T06:20:11;2.28;;;1.40;;
45296;SDS011;31040;51.622;10.420;2022-12-18T06:22:38;2.90;;;1.40;;
45296;SDS011;31040;51.622;10.420;2022-12-18T06:25:06;3.22;;;1.20;;
45296;SDS011;31040;51.622;10.420;2022-12-18T06:27:33;3.03;;;1.40;;
45296;SDS011;31040;51.622;10.420;2022-12-18T06:30:03;3.25;;;1.50;;
45296;SDS011;31040;51.622;10.420;2022-12-18T06:32:31;3.58;;;1.42;;
45296;SDS011;31040;51.622;10.420;2022-12-18T06:34:59;1.77;;;1.40;;
45296;SDS011;31040;51.622;10.420;2022-12-18T06:37:26;4.60;;;1.45;;
45296;SDS011;31040;51.622;10.420;2022-12-18T06:39:54;1.95;;;1.13;;
45296;SDS011;31040;51.622;10.420;2022-12-18T06:42:23;5.75;;;1.52;;
45296;SDS011;31040;51.622;10.420;2022-12-18T06:44:50;2.15;;;1.13;;
45296;SDS011;31040;51.622;10.420;2022-12-18T06:47:18;1.25;;;1.15;;
45296;SDS011;31040;51.622;10.420;2022-12-18T06:49:45;1.73;;;1.08;;
45296;SDS011;31040;51.622;10.420;2022-12-18T06:52:13;3.55;;;1.15;;
45296;SDS011;31040;51.622;10.420;2022-12-18T06:54:42;1.30;;;1.05;;
45296;SDS011;31040;51.622;10.420;2022-12-18T06:57:09;1.55;;;0.90;;
45296;SDS011;31040;51.622;10.420;2022-12-18T06:59:37;2.55;;;1.10;;
45296;SDS011;31040;51.622;10.420;2022-12-18T07:02:05;3.03;;;1.63;;
45296;SDS011;31040;51.622;10.420;2022-12-18T07:04:33;3.30;;;1.23;;
45296;SDS011;31040;51.622;10.420;2022-12-18T07:07:00;2.10;;;1.40;;
45296;SDS011;31040;51.622;10.420;2022-12-18T07:09:28;3.80;;;2.03;;
45296;SDS011;31040;51.622;10.420;2022-12-18T07:11:55;4.95;;;1.90;;
45296;SDS011;31040;51.622;10.420;2022-12-18T07:14:23;4.43;;;2.30;;
45296;SDS011;31040;51.622;10.420;2022-12-18T07:16:50;3.35;;;2.40;;
45296;SDS011;31040;51.622;10.420;2022-12-18T07:19:18;6.35;;;2.28;;
45296;SDS011;31040;51.622;10.420;2022-12-18T07:21:45;5.78;;;2.88;;
45296;SDS011;31040;51.622;10.420;2022-12-18T07:24:12;5.45;;;2.38;;
45296;SDS011;31040;51.622;10.420;2022-12-18T07:26:40;4.35;;;3.00;;
45296;SDS011;31040;51.622;10.420;2022-12-18T07:29:07;6.50;;;3.30;;
45296;SDS011;31040;51.622;10.420;2022-12-18T07:31:35;17.33;;;3.70;;
45296;SDS011;31040;51.622;10.420;2022-12-18T07:34:02;11.18;;;4.45;;
45296;SDS011;31040;51.622;10.420;2022-12-18T07:36:29;6.85;;;4.72;;
45296;SDS011;31040;51.622;10.420;2022-12-18T07:38:57;8.60;;;4.78;;
45296;SDS011;31040;51.622;10.420;2022-12-18T07:41:24;9.60;;;5.65;;
45296;SDS011;31040;51.622;10.420;2022-12-18T07:43:52;11.68;;;6.05;;
45296;SDS011;31040;51.622;10.420;2022-12-18T07:46:19;9.40;;;5.18;;
45296;SDS011;31040;51.622;10.420;2022-12-18T07:48:46;9.75;;;5.68;;
45296;SDS011;31040;51.622;10.420;2022-12-18T07:51:15;10.85;;;6.20;;
45296;SDS011;31040;51.622;10.420;2022-12-18T07:53:43;12.50;;;6.60;;
45296;SDS011;31040;51.622;10.420;2022-12-18T07:56:11;13.73;;;6.63;;
45296;SDS011;31040;51.622;10.420;2022-12-18T07:58:57;10.95;;;5.38;;
45296;SDS011;31040;51.622;10.420;2022-12-18T08:01:24;11.02;;;4.85;;
45296;SDS011;31040;51.622;10.420;2022-12-18T08:03:52;8.50;;;5.60;;
45296;SDS011;31040;51.622;10.420;2022-12-18T08:06:20;7.15;;;3.70;;
45296;SDS011;31040;51.622;10.420;2022-12-18T08:08:53;4.82;;;3.28;;
45296;SDS011;31040;51.622;10.420;2022-12-18T08:11:21;6.65;;;3.65;;
45296;SDS011;31040;51.622;10.420;2022-12-18T08:13:48;2.78;;;2.28;;
45296;SDS011;31040;51.622;10.420;2022-12-18T08:16:16;2.55;;;2.22;;
45296;SDS011;31040;51.622;10.420;2022-12-18T08:18:44;5.15;;;2.22;;
45296;SDS011;31040;51.622;10.420;2022-12-18T08:21:15;4.78;;;2.00;;
45296;SDS011;31040;51.622;10.420;2022-12-18T08:23:43;3.88;;;2.00;;
45296;SDS011;31040;51.622;10.420;2022-12-18T08:26:10;2.17;;;1.65;;
45296;SDS011;31040;51.622;10.420;2022-12-18T08:28:37;3.65;;;2.25;;
45296;SDS011;31040;51.622;10.420;2022-12-18T08:31:05;2.42;;;1.27;;
45296;SDS011;31040;51.622;10.420;2022-12-18T08:33:33;2.10;;;1.48;;
45296;SDS011;31040;51.622;10.420;2022-12-18T08:36:01;3.72;;;2.00;;
45296;SDS011;31040;51.622;10.420;2022-12-18T08:38:28;6.20;;;3.20;;
45296;SDS011;31040;51.622;10.420;2022-12-18T08:40:59;4.60;;;3.60;;
45296;SDS011;31040;51.622;10.420;2022-12-18T08:43:27;8.68;;;3.42;;
45296;SDS011;31040;51.622;10.420;2022-12-18T08:46:13;9.57;;;5.03;;
45296;SDS011;31040;51.622;10.420;2022-12-18T08:48:40;11.10;;;6.65;;
45296;SDS011;31040;51.622;10.420;2022-12-18T08:51:08;4.13;;;3.33;;
45296;SDS011;31040;51.622;10.420;2022-12-18T08:53:36;5.57;;;2.38;;
45296;SDS011;31040;51.622;10.420;2022-12-18T08:56:13;4.53;;;3.22;;
45296;SDS011;31040;51.622;10.420;2022-12-18T08:58:41;5.18;;;2.65;;
45296;SDS011;31040;51.622;10.420;2022-12-18T09:01:09;4.57;;;2.90;;
45296;SDS011;31040;51.622;10.420;2022-12-18T09:03:37;8.10;;;3.30;;
45296;SDS011;31040;51.622;10.420;2022-12-18T09:06:05;6.03;;;2.72;;
45296;SDS011;31040;51.622;10.420;2022-12-18T09:08:33;13.50;;;3.30;;
45296;SDS011;31040;51.622;10.420;2022-12-18T09:11:00;5.43;;;2.45;;
45296;SDS011;31040;51.622;10.420;2022-12-18T09:13:27;3.67;;;2.45;;
45296;SDS011;31040;51.622;10.420;2022-12-18T09:15:55;2.40;;;2.08;;
45296;SDS011;31040;51.622;10.420;2022-12-18T09:18:23;11.52;;;3.15;;
45296;SDS011;31040;51.622;10.420;2022-12-18T09:20:50;3.22;;;2.15;;
45296;SDS011;31040;51.622;10.420;2022-12-18T09:23:19;6.78;;;2.10;;
45296;SDS011;31040;51.622;10.420;2022-12-18T09:25:47;4.35;;;2.25;;
45296;SDS011;31040;51.622;10.420;2022-12-18T09:28:16;2.47;;;2.10;;
45296;SDS011;31040;51.622;10.420;2022-12-18T09:30:45;3.50;;;2.03;;
45296;SDS011;31040;51.622;10.420;2022-12-18T09:33:13;3.85;;;2.00;;
45296;SDS011;31040;51.622;10.420;2022-12-18T09:35:41;6.95;;;1.90;;
45296;SDS011;31040;51.622;10.420;2022-12-18T09:38:13;1.92;;;1.40;;
45296;SDS011;31040;51.622;10.420;2022-12-18T09:40:42;3.65;;;2.10;;
45296;SDS011;31040;51.622;10.420;2022-12-18T09:46:00;7.32;;;1.77;;
45296;SDS011;31040;51.622;10.420;2022-12-18T09:48:30;1.02;;;0.93;;
45296;SDS011;31040;51.622;10.420;2022-12-18T09:51:00;2.15;;;1.20;;
45296;SDS011;31040;51.622;10.420;2022-12-18T09:53:30;2.45;;;2.00;;
45296;SDS011;31040;51.622;10.420;2022-12-18T09:55:59;4.00;;;2.30;;
45296;SDS011;31040;51.622;10.420;2022-12-18T10:00:56;3.95;;;2.38;;
45296;SDS011;31040;51.622;10.420;2022-12-18T10:03:23;3.05;;;2.20;;
45296;SDS011;31040;51.622;10.420;2022-12-18T10:06:01;2.60;;;1.92;;
45296;SDS011;31040;51.622;10.420;2022-12-18T10:14:39;2.28;;;1.95;;
45296;SDS011;31040;51.622;10.420;2022-12-18T10:26:42;14.23;;;8.15;;
45296;SDS011;31040;51.622;10.420;2022-12-18T10:29:14;21.50;;;11.55;;
45296;SDS011;31040;51.622;10.420;2022-12-18T10:31:41;10.95;;;7.32;;
45296;SDS011;31040;51.622;10.420;2022-12-18T10:34:10;11.63;;;6.38;;
45296;SDS011;31040;51.622;10.420;2022-12-18T10:36:37;17.45;;;8.90;;
45296;SDS011;31040;51.622;10.420;2022-12-18T10:39:18;16.15;;;9.90;;
45296;SDS011;31040;51.622;10.420;2022-12-18T10:41:47;18.95;;;11.15;;
45296;SDS011;31040;51.622;10.420;2022-12-18T10:44:18;10.80;;;6.40;;
45296;SDS011;31040;51.622;10.420;2022-12-18T10:46:47;8.77;;;5.30;;
45296;SDS011;31040;51.622;10.420;2022-12-18T10:49:33;15.50;;;7.97;;
45296;SDS011;31040;51.622;10.420;2022-12-18T10:52:18;14.13;;;9.35;;
45296;SDS011;31040;51.622;10.420;2022-12-18T10:54:57;8.25;;;4.53;;
45296;SDS011;31040;51.622;10.420;2022-12-18T10:59:53;5.43;;;3.78;;
45296;SDS011;31040;51.622;10.420;2022-12-18T11:02:26;7.20;;;4.72;;
45296;SDS011;31040;51.622;10.420;2022-12-18T11:04:54;7.88;;;3.60;;
45296;SDS011;31040;51.622;10.420;2022-12-18T11:07:21;5.38;;;3.75;;
45296;SDS011;31040;51.622;10.420;2022-12-18T11:10:14;12.55;;;5.90;;
45296;SDS011;31040;51.622;10.420;2022-12-18T11:12:39;10.70;;;6.95;;
45296;SDS011;31040;51.622;10.420;2022-12-18T11:15:13;17.95;;;10.55;;
45296;SDS011;31040;51.622;10.420;2022-12-18T11:17:42;13.90;;;8.95;;
45296;SDS011;31040;51.622;10.420;2022-12-18T11:20:19;14.70;;;8.38;;
45296;SDS011;31040;51.622;10.420;2022-12-18T11:22:54;17.48;;;9.93;;
45296;SDS011;31040;51.622;10.420;2022-12-18T11:25:22;16.20;;;10.68;;
45296;SDS011;31040;51.622;10.420;2022-12-18T11:28:00;17.83;;;10.88;;
45296;SDS011;31040;51.622;10.420;2022-12-18T11:30:29;14.18;;;9.57;;
45296;SDS011;31040;51.622;10.420;2022-12-18T11:35:55;13.75;;;9.73;;
45296;SDS011;31040;51.622;10.420;2022-12-18T11:43:32;12.40;;;8.52;;
45296;SDS011;31040;51.622;10.420;2022-12-18T11:46:06;14.90;;;7.70;;
45296;SDS011;31040;51.622;10.420;2022-12-18T11:48:49;16.08;;;8.38;;
45296;SDS011;31040;51.622;10.420;2022-12-18T11:51:27;13.18;;;8.15;;
45296;SDS011;31040;51.622;10.420;2022-12-18T11:53:55;6.10;;;4.55;;
45296;SDS011;31040;51.622;10.420;2022-12-18T12:01:50;12.48;;;6.50;;
45296;SDS011;31040;51.622;10.420;2022-12-18T12:11:55;20.42;;;10.30;;
45296;SDS011;31040;51.622;10.420;2022-12-18T12:17:13;16.92;;;8.77;;
45296;SDS011;31040;51.622;10.420;2022-12-18T12:19:46;14.63;;;9.80;;
45296;SDS011;31040;51.622;10.420;2022-12-18T12:40:05;14.20;;;8.60;;
45296;SDS011;31040;51.622;10.420;2022-12-18T12:42:57;15.18;;;9.75;;
45296;SDS011;31040;51.622;10.420;2022-12-18T12:45:58;16.08;;;9.57;;
45296;SDS011;31040;51.622;10.420;2022-12-18T12:48:38;12.32;;;8.68;;
45296;SDS011;31040;51.622;10.420;2022-12-18T12:53:45;11.27;;;6.80;;
45296;SDS011;31040;51.622;10.420;2022-12-18T12:56:14;3.70;;;2.88;;
45296;SDS011;31040;51.622;10.420;2022-12-18T13:06:33;2.05;;;1.35;;
45296;SDS011;31040;51.622;10.420;2022-12-18T13:09:22;2.33;;;1.60;;
45296;SDS011;31040;51.622;10.420;2022-12-18T13:11:50;3.42;;;1.48;;
45296;SDS011;31040;51.622;10.420;2022-12-18T13:14:36;4.18;;;2.28;;
45296;SDS011;31040;51.622;10.420;2022-12-18T13:28:54;1.92;;;1.65;;
45296;SDS011;31040;51.622;10.420;2022-12-18T13:30:55;2.83;;;1.17;;
45296;SDS011;31040;51.622;10.420;2022-12-18T13:36:01;2.70;;;1.80;;
45296;SDS011;31040;51.622;10.420;2022-12-18T13:38:33;3.45;;;2.40;;
45296;SDS011;31040;51.622;10.420;2022-12-18T13:46:21;3.22;;;2.50;;
45296;SDS011;31040;51.622;10.420;2022-12-18T13:48:55;4.80;;;3.65;;
45296;SDS011;31040;51.622;10.420;2022-12-18T13:51:23;3.78;;;2.88;;
45296;SDS011;31040;51.622;10.420;2022-12-18T13:56:23;6.13;;;3.75;;
45296;SDS011;31040;51.622;10.420;2022-12-18T14:01:32;7.97;;;5.20;;
45296;SDS011;31040;51.622;10.420;2022-12-18T14:04:19;7.85;;;3.97;;
45296;SDS011;31040;51.622;10.420;2022-12-18T14:06:47;5.60;;;4.15;;
45296;SDS011;31040;51.622;10.420;2022-12-18T14:09:21;6.00;;;4.18;;
45296;SDS011;31040;51.622;10.420;2022-12-18T14:11:51;5.45;;;3.45;;
45296;SDS011;31040;51.622;10.420;2022-12-18T14:14:41;11.30;;;3.53;;
45296;SDS011;31040;51.622;10.420;2022-12-18T14:17:11;7.65;;;5.68;;
45296;SDS011;31040;51.622;10.420;2022-12-18T14:19:45;7.20;;;5.00;;
45296;SDS011;31040;51.622;10.420;2022-12-18T14:22:15;10.98;;;6.50;;
45296;SDS011;31040;51.622;10.420;2022-12-18T14:24:43;27.58;;;12.25;;
45296;SDS011;31040;51.622;10.420;2022-12-18T14:27:45;14.38;;;7.15;;
45296;SDS011;31040;51.622;10.420;2022-12-18T14:40:38;5.53;;;3.70;;
45296;SDS011;31040;51.622;10.420;2022-12-18T14:43:08;7.72;;;4.30;;
45296;SDS011;31040;51.622;10.420;2022-12-18T14:45:38;6.85;;;4.85;;
45296;SDS011;31040;51.622;10.420;2022-12-18T14:48:11;9.73;;;5.40;;
45296;SDS011;31040;51.622;10.420;2022-12-18T14:50:44;7.47;;;4.00;;
45296;SDS011;31040;51.622;10.420;2022-12-18T14:53:19;5.13;;;3.60;;
45296;SDS011;31040;51.622;10.420;2022-12-18T14:55:47;6.55;;;4.00;;
45296;SDS011;31040;51.622;10.420;2022-12-18T14:58:15;8.75;;;5.75;;
45296;SDS011;31040;51.622;10.420;2022-12-18T15:00:44;6.70;;;4.50;;
45296;SDS011;31040;51.622;10.420;2022-12-18T15:03:12;6.05;;;4.28;;
45296;SDS011;31040;51.622;10.420;2022-12-18T15:05:44;5.90;;;3.78;;
45296;SDS011;31040;51.622;10.420;2022-12-18T15:08:29;5.28;;;3.22;;
45296;SDS011;31040;51.622;10.420;2022-12-18T15:13:25;4.97;;;3.05;;
45296;SDS011;31040;51.622;10.420;2022-12-18T15:15:53;5.13;;;3.60;;
45296;SDS011;31040;51.622;10.420;2022-12-18T15:18:23;4.72;;;3.00;;
45296;SDS011;31040;51.622;10.420;2022-12-18T15:20:58;3.65;;;2.45;;
45296;SDS011;31040;51.622;10.420;2022-12-18T15:26:01;4.57;;;3.03;;
45296;SDS011;31040;51.622;10.420;2022-12-18T15:28:31;3.15;;;2.83;;
45296;SDS011;31040;51.622;10.420;2022-12-18T15:33:36;6.10;;;3.53;;
45296;SDS011;31040;51.622;10.420;2022-12-18T15:36:09;4.30;;;2.80;;
45296;SDS011;31040;51.622;10.420;2022-12-18T15:38:36;3.92;;;2.58;;
45296;SDS011;31040;51.622;10.420;2022-12-18T15:41:04;3.15;;;2.35;;
45296;SDS011;31040;51.622;10.420;2022-12-18T15:43:39;5.75;;;2.70;;
45296;SDS011;31040;51.622;10.420;2022-12-18T15:46:14;4.50;;;2.80;;
45296;SDS011;31040;51.622;10.420;2022-12-18T15:48:43;5.90;;;3.00;;
45296;SDS011;31040;51.622;10.420;2022-12-18T15:51:20;3.72;;;2.75;;
45296;SDS011;31040;51.622;10.420;2022-12-18T15:53:48;1.63;;;1.52;;
45296;SDS011;31040;51.622;10.420;2022-12-18T15:56:16;4.40;;;3.03;;
45296;SDS011;31040;51.622;10.420;2022-12-18T15:59:04;5.03;;;3.20;;
45296;SDS011;31040;51.622;10.420;2022-12-18T16:01:35;3.90;;;2.90;;
45296;SDS011;31040;51.622;10.420;2022-12-18T16:04:08;5.43;;;2.92;;
45296;SDS011;31040;51.622;10.420;2022-12-18T16:06:37;4.13;;;3.67;;
45296;SDS011;31040;51.622;10.420;2022-12-18T16:09:24;4.25;;;3.10;;
45296;SDS011;31040;51.622;10.420;2022-12-18T16:11:51;5.97;;;3.50;;
45296;SDS011;31040;51.622;10.420;2022-12-18T16:14:26;5.20;;;3.30;;
45296;SDS011;31040;51.622;10.420;2022-12-18T16:17:05;4.80;;;3.08;;
45296;SDS011;31040;51.622;10.420;2022-12-18T16:19:35;5.30;;;3.38;;
45296;SDS011;31040;51.622;10.420;2022-12-18T16:22:03;5.28;;;3.78;;
45296;SDS011;31040;51.622;10.420;2022-12-18T16:24:32;4.40;;;3.20;;
45296;SDS011;31040;51.622;10.420;2022-12-18T16:27:02;7.18;;;3.72;;
45296;SDS011;31040;51.622;10.420;2022-12-18T16:29:29;6.25;;;3.22;;
45296;SDS011;31040;51.622;10.420;2022-12-18T16:31:57;5.05;;;2.72;;
45296;SDS011;31040;51.622;10.420;2022-12-18T16:34:26;4.55;;;3.33;;
45296;SDS011;31040;51.622;10.420;2022-12-18T16:36:58;5.55;;;3.30;;
45296;SDS011;31040;51.622;10.420;2022-12-18T16:39:31;4.82;;;3.67;;
45296;SDS011;31040;51.622;10.420;2022-12-18T16:42:01;6.43;;;4.45;;
45296;SDS011;31040;51.622;10.420;2022-12-18T16:44:31;4.95;;;3.47;;
45296;SDS011;31040;51.622;10.420;2022-12-18T16:46:58;4.22;;;3.00;;
45296;SDS011;31040;51.622;10.420;2022-12-18T16:49:28;4.75;;;2.95;;
45296;SDS011;31040;51.622;10.420;2022-12-18T16:51:56;6.43;;;3.85;;
45296;SDS011;31040;51.622;10.420;2022-12-18T16:54:23;5.72;;;3.88;;
45296;SDS011;31040;51.622;10.420;2022-12-18T16:56:51;6.28;;;3.88;;
45296;SDS011;31040;51.622;10.420;2022-12-18T16:59:18;4.60;;;3.35;;
45296;SDS011;31040;51.622;10.420;2022-12-18T17:01:46;4.68;;;2.97;;
45296;SDS011;31040;51.622;10.420;2022-12-18T17:04:14;5.57;;;4.43;;
45296;SDS011;31040;51.622;10.420;2022-12-18T17:06:44;6.72;;;2.75;;
45296;SDS011;31040;51.622;10.420;2022-12-18T17:09:17;5.85;;;3.92;;
45296;SDS011;31040;51.622;10.420;2022-12-18T17:11:52;6.85;;;3.50;;
45296;SDS011;31040;51.622;10.420;2022-12-18T17:14:20;4.25;;;3.28;;
45296;SDS011;31040;51.622;10.420;2022-12-18T17:16:47;5.47;;;3.13;;
45296;SDS011;31040;51.622;10.420;2022-12-18T17:19:35;2.90;;;2.20;;